sensor_id;sensor_type;location;lat;lon;timestamp;P1;durP1;ratioP1;P2;durP2;ratioP2
59530;SDS011;45349;48.692;8.186;2023-07-29T00:02:06;0.70;;;0.50;;
59530;SDS011;45349;48.692;8.186;2023-07-29T00:04:33;1.00;;;0.70;;
59530;SDS011;45349;48.692;8.186;2023-07-29T00:06:59;1.53;;;0.87;;
59530;SDS011;45349;48.692;8.186;2023-07-29T00:09:26;1.30;;;0.60;;
59530;SDS011;45349;48.692;8.186;2023-07-29T00:11:54;1.70;;;0.63;;
59530;SDS011;45349;48.692;8.186;2023-07-29T00:14:20;5.63;;;0.70;;
59530;SDS011;45349;48.692;8.186;2023-07-29T00:16:47;4.00;;;0.67;;
59530;SDS011;45349;48.692;8.186;2023-07-29T00:19:14;2.97;;;0.80;;
59530;SDS011;45349;48.692;8.186;2023-07-29T00:21:40;1.07;;;0.47;;
59530;SDS011;45349;48.692;8.186;2023-07-29T00:24:07;3.00;;;0.90;;
59530;SDS011;45349;48.692;8.186;2023-07-29T00:26:33;1.87;;;0.80;;
59530;SDS011;45349;48.692;8.186;2023-07-29T00:29:01;4.23;;;0.67;;
59530;SDS011;45349;48.692;8.186;2023-07-29T00:31:28;1.43;;;0.83;;
59530;SDS011;45349;48.692;8.186;2023-07-29T00:33:56;1.13;;;0.60;;
59530;SDS011;45349;48.692;8.186;2023-07-29T00:36:23;2.30;;;0.70;;
59530;SDS011;45349;48.692;8.186;2023-07-29T00:38:50;3.10;;;0.60;;
59530;SDS011;45349;48.692;8.186;2023-07-29T00:41:18;2.17;;;0.70;;
59530;SDS011;45349;48.692;8.186;2023-07-29T00:43:45;3.70;;;0.83;;
59530;SDS011;45349;48.692;8.186;2023-07-29T00:46:13;2.33;;;0.60;;
59530;SDS011;45349;48.692;8.186;2023-07-29T00:48:41;0.90;;;0.70;;
59530;SDS011;45349;48.692;8.186;2023-07-29T00:51:07;1.50;;;0.40;;
59530;SDS011;45349;48.692;8.186;2023-07-29T00:53:34;1.17;;;0.70;;
59530;SDS011;45349;48.692;8.186;2023-07-29T00:56:01;3.27;;;0.77;;
59530;SDS011;45349;48.692;8.186;2023-07-29T00:58:27;4.40;;;0.73;;
59530;SDS011;45349;48.692;8.186;2023-07-29T01:00:54;1.57;;;0.60;;
59530;SDS011;45349;48.692;8.186;2023-07-29T01:03:23;2.73;;;1.00;;
59530;SDS011;45349;48.692;8.186;2023-07-29T01:05:52;1.37;;;0.67;;
59530;SDS011;45349;48.692;8.186;2023-07-29T01:08:30;2.20;;;0.63;;
59530;SDS011;45349;48.692;8.186;2023-07-29T01:11:03;1.30;;;0.60;;
59530;SDS011;45349;48.692;8.186;2023-07-29T01:13:44;2.10;;;0.80;;
59530;SDS011;45349;48.692;8.186;2023-07-29T01:16:15;3.13;;;0.77;;
59530;SDS011;45349;48.692;8.186;2023-07-29T01:18:48;2.00;;;0.70;;
59530;SDS011;45349;48.692;8.186;2023-07-29T01:21:18;1.23;;;0.70;;
59530;SDS011;45349;48.692;8.186;2023-07-29T01:23:48;4.40;;;0.90;;
59530;SDS011;45349;48.692;8.186;2023-07-29T01:26:18;3.70;;;0.60;;
59530;SDS011;45349;48.692;8.186;2023-07-29T01:28:45;2.80;;;0.80;;
59530;SDS011;45349;48.692;8.186;2023-07-29T01:31:13;2.83;;;0.70;;
59530;SDS011;45349;48.692;8.186;2023-07-29T01:33:47;0.60;;;0.60;;
59530;SDS011;45349;48.692;8.186;2023-07-29T01:36:20;1.60;;;1.00;;
59530;SDS011;45349;48.692;8.186;2023-07-29T01:38:50;2.57;;;0.70;;
59530;SDS011;45349;48.692;8.186;2023-07-29T01:41:19;2.47;;;1.10;;
59530;SDS011;45349;48.692;8.186;2023-07-29T01:43:47;1.53;;;0.80;;
59530;SDS011;45349;48.692;8.186;2023-07-29T01:46:14;2.60;;;1.23;;
59530;SDS011;45349;48.692;8.186;2023-07-29T01:48:41;1.53;;;0.60;;
59530;SDS011;45349;48.692;8.186;2023-07-29T01:51:08;3.80;;;0.70;;
59530;SDS011;45349;48.692;8.186;2023-07-29T01:53:37;2.33;;;0.90;;
59530;SDS011;45349;48.692;8.186;2023-07-29T01:56:05;1.50;;;0.97;;
59530;SDS011;45349;48.692;8.186;2023-07-29T01:58:33;2.17;;;0.83;;
59530;SDS011;45349;48.692;8.186;2023-07-29T02:01:00;4.83;;;0.90;;
59530;SDS011;45349;48.692;8.186;2023-07-29T02:03:26;2.77;;;0.70;;
59530;SDS011;45349;48.692;8.186;2023-07-29T02:05:53;3.90;;;0.87;;
59530;SDS011;45349;48.692;8.186;2023-07-29T02:08:19;3.23;;;0.80;;
59530;SDS011;45349;48.692;8.186;2023-07-29T02:10:46;1.27;;;0.67;;
59530;SDS011;45349;48.692;8.186;2023-07-29T02:13:15;3.83;;;0.87;;
59530;SDS011;45349;48.692;8.186;2023-07-29T02:15:42;3.20;;;0.87;;
59530;SDS011;45349;48.692;8.186;2023-07-29T02:18:09;5.07;;;0.80;;
59530;SDS011;45349;48.692;8.186;2023-07-29T02:20:35;1.93;;;0.90;;
59530;SDS011;45349;48.692;8.186;2023-07-29T02:23:02;2.07;;;0.70;;
59530;SDS011;45349;48.692;8.186;2023-07-29T02:25:29;2.07;;;0.80;;
59530;SDS011;45349;48.692;8.186;2023-07-29T02:27:55;2.50;;;0.87;;
59530;SDS011;45349;48.692;8.186;2023-07-29T02:30:23;2.03;;;1.10;;
59530;SDS011;45349;48.692;8.186;2023-07-29T02:32:50;5.50;;;0.90;;
59530;SDS011;45349;48.692;8.186;2023-07-29T02:35:17;2.00;;;0.83;;
59530;SDS011;45349;48.692;8.186;2023-07-29T02:37:43;1.60;;;0.87;;
59530;SDS011;45349;48.692;8.186;2023-07-29T02:40:11;1.20;;;0.90;;
59530;SDS011;45349;48.692;8.186;2023-07-29T02:42:37;2.43;;;0.70;;
59530;SDS011;45349;48.692;8.186;2023-07-29T02:45:04;4.10;;;0.73;;
59530;SDS011;45349;48.692;8.186;2023-07-29T02:47:36;3.23;;;1.00;;
59530;SDS011;45349;48.692;8.186;2023-07-29T02:50:03;1.87;;;0.80;;
59530;SDS011;45349;48.692;8.186;2023-07-29T02:52:30;1.73;;;0.70;;
59530;SDS011;45349;48.692;8.186;2023-07-29T02:54:56;2.20;;;0.80;;
59530;SDS011;45349;48.692;8.186;2023-07-29T02:57:23;5.70;;;0.97;;
59530;SDS011;45349;48.692;8.186;2023-07-29T02:59:53;1.47;;;0.87;;
59530;SDS011;45349;48.692;8.186;2023-07-29T03:02:20;5.47;;;1.20;;
59530;SDS011;45349;48.692;8.186;2023-07-29T03:04:51;1.43;;;0.87;;
59530;SDS011;45349;48.692;8.186;2023-07-29T03:07:18;1.83;;;1.23;;
59530;SDS011;45349;48.692;8.186;2023-07-29T03:09:45;2.70;;;1.00;;
59530;SDS011;45349;48.692;8.186;2023-07-29T03:12:12;5.33;;;1.60;;
59530;SDS011;45349;48.692;8.186;2023-07-29T03:14:38;3.27;;;1.20;;
59530;SDS011;45349;48.692;8.186;2023-07-29T03:17:06;2.27;;;1.37;;
59530;SDS011;45349;48.692;8.186;2023-07-29T03:19:33;4.00;;;1.20;;
59530;SDS011;45349;48.692;8.186;2023-07-29T03:22:01;3.90;;;1.33;;
59530;SDS011;45349;48.692;8.186;2023-07-29T03:24:28;2.00;;;1.20;;
59530;SDS011;45349;48.692;8.186;2023-07-29T03:26:55;3.10;;;1.20;;
59530;SDS011;45349;48.692;8.186;2023-07-29T03:29:21;3.97;;;1.70;;
59530;SDS011;45349;48.692;8.186;2023-07-29T03:31:48;7.17;;;1.27;;
59530;SDS011;45349;48.692;8.186;2023-07-29T03:34:15;2.07;;;1.30;;
59530;SDS011;45349;48.692;8.186;2023-07-29T03:36:45;6.53;;;1.30;;
59530;SDS011;45349;48.692;8.186;2023-07-29T03:39:14;3.63;;;1.40;;
59530;SDS011;45349;48.692;8.186;2023-07-29T03:41:41;4.93;;;1.60;;
59530;SDS011;45349;48.692;8.186;2023-07-29T03:44:07;3.10;;;1.10;;
59530;SDS011;45349;48.692;8.186;2023-07-29T03:46:34;5.20;;;1.47;;
59530;SDS011;45349;48.692;8.186;2023-07-29T03:49:02;4.00;;;1.57;;
59530;SDS011;45349;48.692;8.186;2023-07-29T03:51:29;2.00;;;1.40;;
59530;SDS011;45349;48.692;8.186;2023-07-29T03:53:55;2.27;;;1.40;;
59530;SDS011;45349;48.692;8.186;2023-07-29T03:56:23;4.53;;;1.30;;
59530;SDS011;45349;48.692;8.186;2023-07-29T03:58:50;2.37;;;1.13;;
59530;SDS011;45349;48.692;8.186;2023-07-29T04:01:17;1.63;;;1.10;;
59530;SDS011;45349;48.692;8.186;2023-07-29T04:03:44;3.57;;;1.13;;
59530;SDS011;45349;48.692;8.186;2023-07-29T04:06:11;1.20;;;0.90;;
59530;SDS011;45349;48.692;8.186;2023-07-29T04:08:37;0.80;;;0.70;;
59530;SDS011;45349;48.692;8.186;2023-07-29T04:11:04;1.47;;;1.10;;
59530;SDS011;45349;48.692;8.186;2023-07-29T04:13:32;1.63;;;0.80;;
59530;SDS011;45349;48.692;8.186;2023-07-29T04:15:59;1.07;;;0.83;;
59530;SDS011;45349;48.692;8.186;2023-07-29T04:18:27;2.00;;;0.73;;
59530;SDS011;45349;48.692;8.186;2023-07-29T04:20:53;0.60;;;0.60;;
59530;SDS011;45349;48.692;8.186;2023-07-29T04:23:20;1.43;;;0.90;;
59530;SDS011;45349;48.692;8.186;2023-07-29T04:25:46;1.60;;;0.80;;
59530;SDS011;45349;48.692;8.186;2023-07-29T04:28:13;1.47;;;0.80;;
59530;SDS011;45349;48.692;8.186;2023-07-29T04:30:41;1.50;;;0.73;;
59530;SDS011;45349;48.692;8.186;2023-07-29T04:33:07;0.93;;;0.83;;
59530;SDS011;45349;48.692;8.186;2023-07-29T04:35:36;1.83;;;0.90;;
59530;SDS011;45349;48.692;8.186;2023-07-29T04:38:03;1.40;;;1.10;;
59530;SDS011;45349;48.692;8.186;2023-07-29T04:40:29;3.07;;;0.80;;
59530;SDS011;45349;48.692;8.186;2023-07-29T04:42:59;1.50;;;0.83;;
59530;SDS011;45349;48.692;8.186;2023-07-29T04:45:27;2.10;;;0.93;;
59530;SDS011;45349;48.692;8.186;2023-07-29T04:47:55;1.77;;;1.27;;
59530;SDS011;45349;48.692;8.186;2023-07-29T04:50:22;1.90;;;1.57;;
59530;SDS011;45349;48.692;8.186;2023-07-29T04:52:50;3.83;;;1.63;;
59530;SDS011;45349;48.692;8.186;2023-07-29T04:55:18;2.70;;;1.30;;
59530;SDS011;45349;48.692;8.186;2023-07-29T04:57:44;3.07;;;1.63;;
59530;SDS011;45349;48.692;8.186;2023-07-29T05:00:11;1.77;;;1.47;;
59530;SDS011;45349;48.692;8.186;2023-07-29T05:02:38;2.50;;;1.37;;
59530;SDS011;45349;48.692;8.186;2023-07-29T05:05:06;5.77;;;1.93;;
59530;SDS011;45349;48.692;8.186;2023-07-29T05:07:34;3.47;;;1.40;;
59530;SDS011;45349;48.692;8.186;2023-07-29T05:10:00;3.47;;;1.73;;
59530;SDS011;45349;48.692;8.186;2023-07-29T05:12:27;1.27;;;1.13;;
59530;SDS011;45349;48.692;8.186;2023-07-29T05:14:54;4.33;;;1.63;;
59530;SDS011;45349;48.692;8.186;2023-07-29T05:17:21;2.63;;;1.67;;
59530;SDS011;45349;48.692;8.186;2023-07-29T05:19:53;4.23;;;1.20;;
59530;SDS011;45349;48.692;8.186;2023-07-29T05:22:21;1.50;;;1.20;;
59530;SDS011;45349;48.692;8.186;2023-07-29T05:24:51;2.77;;;1.20;;
59530;SDS011;45349;48.692;8.186;2023-07-29T05:27:18;2.40;;;1.10;;
59530;SDS011;45349;48.692;8.186;2023-07-29T05:29:44;2.43;;;1.10;;
59530;SDS011;45349;48.692;8.186;2023-07-29T05:32:11;3.57;;;1.40;;
59530;SDS011;45349;48.692;8.186;2023-07-29T05:34:37;1.73;;;1.10;;
59530;SDS011;45349;48.692;8.186;2023-07-29T05:37:05;1.40;;;1.10;;
59530;SDS011;45349;48.692;8.186;2023-07-29T05:39:33;3.97;;;1.30;;
59530;SDS011;45349;48.692;8.186;2023-07-29T05:42:00;4.03;;;1.20;;
59530;SDS011;45349;48.692;8.186;2023-07-29T05:44:28;1.73;;;1.40;;
59530;SDS011;45349;48.692;8.186;2023-07-29T05:46:55;1.87;;;1.07;;
59530;SDS011;45349;48.692;8.186;2023-07-29T05:49:22;3.23;;;1.47;;
59530;SDS011;45349;48.692;8.186;2023-07-29T05:51:49;1.87;;;1.40;;
59530;SDS011;45349;48.692;8.186;2023-07-29T05:54:18;2.90;;;1.30;;
59530;SDS011;45349;48.692;8.186;2023-07-29T05:56:46;1.80;;;1.30;;
59530;SDS011;45349;48.692;8.186;2023-07-29T05:59:12;2.73;;;1.40;;
59530;SDS011;45349;48.692;8.186;2023-07-29T06:01:39;1.70;;;1.20;;
59530;SDS011;45349;48.692;8.186;2023-07-29T06:04:06;2.63;;;1.40;;
59530;SDS011;45349;48.692;8.186;2023-07-29T06:06:33;1.50;;;1.20;;
59530;SDS011;45349;48.692;8.186;2023-07-29T06:09:00;3.03;;;1.40;;
59530;SDS011;45349;48.692;8.186;2023-07-29T06:11:26;2.30;;;1.60;;
59530;SDS011;45349;48.692;8.186;2023-07-29T06:13:54;2.77;;;1.50;;
59530;SDS011;45349;48.692;8.186;2023-07-29T06:16:21;2.90;;;1.43;;
59530;SDS011;45349;48.692;8.186;2023-07-29T06:18:47;2.33;;;1.37;;
59530;SDS011;45349;48.692;8.186;2023-07-29T06:21:14;5.67;;;1.80;;
59530;SDS011;45349;48.692;8.186;2023-07-29T06:23:42;3.17;;;1.80;;
59530;SDS011;45349;48.692;8.186;2023-07-29T06:26:09;2.40;;;2.00;;
59530;SDS011;45349;48.692;8.186;2023-07-29T06:28:35;2.77;;;1.57;;
59530;SDS011;45349;48.692;8.186;2023-07-29T06:31:03;5.03;;;1.70;;
59530;SDS011;45349;48.692;8.186;2023-07-29T06:33:30;4.57;;;1.73;;
59530;SDS011;45349;48.692;8.186;2023-07-29T06:35:57;2.60;;;2.00;;
59530;SDS011;45349;48.692;8.186;2023-07-29T06:38:23;3.37;;;1.60;;
59530;SDS011;45349;48.692;8.186;2023-07-29T06:40:50;2.40;;;1.43;;
59530;SDS011;45349;48.692;8.186;2023-07-29T06:43:17;1.53;;;1.00;;
59530;SDS011;45349;48.692;8.186;2023-07-29T06:45:44;1.47;;;1.10;;
59530;SDS011;45349;48.692;8.186;2023-07-29T06:48:12;2.23;;;1.20;;
59530;SDS011;45349;48.692;8.186;2023-07-29T06:50:38;1.70;;;1.13;;
59530;SDS011;45349;48.692;8.186;2023-07-29T06:53:05;1.83;;;1.20;;
59530;SDS011;45349;48.692;8.186;2023-07-29T06:55:32;1.80;;;1.10;;
59530;SDS011;45349;48.692;8.186;2023-07-29T06:57:59;2.00;;;1.37;;
59530;SDS011;45349;48.692;8.186;2023-07-29T07:00:25;2.27;;;1.10;;
59530;SDS011;45349;48.692;8.186;2023-07-29T07:02:52;1.70;;;1.00;;
59530;SDS011;45349;48.692;8.186;2023-07-29T07:05:20;3.63;;;1.00;;
59530;SDS011;45349;48.692;8.186;2023-07-29T07:07:46;1.97;;;0.93;;
59530;SDS011;45349;48.692;8.186;2023-07-29T07:10:13;1.97;;;1.10;;
59530;SDS011;45349;48.692;8.186;2023-07-29T07:12:40;1.73;;;0.90;;
59530;SDS011;45349;48.692;8.186;2023-07-29T07:15:07;1.77;;;0.80;;
59530;SDS011;45349;48.692;8.186;2023-07-29T07:17:34;1.13;;;0.70;;
59530;SDS011;45349;48.692;8.186;2023-07-29T07:20:01;1.23;;;0.87;;
59530;SDS011;45349;48.692;8.186;2023-07-29T07:22:29;1.53;;;0.87;;
59530;SDS011;45349;48.692;8.186;2023-07-29T07:24:56;1.90;;;0.77;;
59530;SDS011;45349;48.692;8.186;2023-07-29T07:27:22;1.20;;;0.80;;
59530;SDS011;45349;48.692;8.186;2023-07-29T07:29:53;2.67;;;0.87;;
59530;SDS011;45349;48.692;8.186;2023-07-29T07:32:19;1.03;;;0.70;;
59530;SDS011;45349;48.692;8.186;2023-07-29T07:34:52;1.20;;;0.70;;
59530;SDS011;45349;48.692;8.186;2023-07-29T07:37:19;1.00;;;0.70;;
59530;SDS011;45349;48.692;8.186;2023-07-29T07:39:46;0.67;;;0.50;;
59530;SDS011;45349;48.692;8.186;2023-07-29T07:42:13;1.47;;;0.70;;
59530;SDS011;45349;48.692;8.186;2023-07-29T07:44:40;1.53;;;0.70;;
59530;SDS011;45349;48.692;8.186;2023-07-29T07:47:06;2.23;;;0.53;;
59530;SDS011;45349;48.692;8.186;2023-07-29T07:49:33;1.10;;;0.70;;
59530;SDS011;45349;48.692;8.186;2023-07-29T07:51:59;1.00;;;0.60;;
59530;SDS011;45349;48.692;8.186;2023-07-29T07:54:26;0.80;;;0.77;;
59530;SDS011;45349;48.692;8.186;2023-07-29T07:56:54;0.67;;;0.50;;
59530;SDS011;45349;48.692;8.186;2023-07-29T07:59:20;0.67;;;0.57;;
59530;SDS011;45349;48.692;8.186;2023-07-29T08:01:47;2.90;;;0.67;;
59530;SDS011;45349;48.692;8.186;2023-07-29T08:04:13;1.97;;;0.70;;
59530;SDS011;45349;48.692;8.186;2023-07-29T08:06:40;0.90;;;0.70;;
59530;SDS011;45349;48.692;8.186;2023-07-29T08:09:06;1.67;;;0.70;;
59530;SDS011;45349;48.692;8.186;2023-07-29T08:11:33;1.73;;;0.50;;
59530;SDS011;45349;48.692;8.186;2023-07-29T08:14:02;1.13;;;0.60;;
59530;SDS011;45349;48.692;8.186;2023-07-29T08:16:28;1.83;;;0.90;;
59530;SDS011;45349;48.692;8.186;2023-07-29T08:18:55;0.90;;;0.53;;
59530;SDS011;45349;48.692;8.186;2023-07-29T08:21:21;2.47;;;0.60;;
59530;SDS011;45349;48.692;8.186;2023-07-29T08:23:48;0.77;;;0.70;;
59530;SDS011;45349;48.692;8.186;2023-07-29T08:26:15;1.57;;;0.67;;
59530;SDS011;45349;48.692;8.186;2023-07-29T08:28:41;1.30;;;0.77;;
59530;SDS011;45349;48.692;8.186;2023-07-29T08:31:09;1.33;;;0.90;;
59530;SDS011;45349;48.692;8.186;2023-07-29T08:33:36;1.30;;;0.90;;
59530;SDS011;45349;48.692;8.186;2023-07-29T08:36:03;4.10;;;0.73;;
59530;SDS011;45349;48.692;8.186;2023-07-29T08:38:29;1.33;;;0.80;;
59530;SDS011;45349;48.692;8.186;2023-07-29T08:40:58;1.10;;;0.80;;
59530;SDS011;45349;48.692;8.186;2023-07-29T08:43:31;3.80;;;0.80;;
59530;SDS011;45349;48.692;8.186;2023-07-29T08:45:59;2.87;;;0.97;;
59530;SDS011;45349;48.692;8.186;2023-07-29T08:48:32;1.60;;;1.00;;
59530;SDS011;45349;48.692;8.186;2023-07-29T08:51:03;2.10;;;0.80;;
59530;SDS011;45349;48.692;8.186;2023-07-29T08:53:31;1.87;;;0.90;;
59530;SDS011;45349;48.692;8.186;2023-07-29T08:55:59;1.13;;;0.90;;
59530;SDS011;45349;48.692;8.186;2023-07-29T08:58:25;1.50;;;0.90;;
59530;SDS011;45349;48.692;8.186;2023-07-29T09:00:52;3.80;;;1.00;;
59530;SDS011;45349;48.692;8.186;2023-07-29T09:03:19;1.37;;;0.90;;
59530;SDS011;45349;48.692;8.186;2023-07-29T09:05:47;2.53;;;1.00;;
59530;SDS011;45349;48.692;8.186;2023-07-29T09:08:14;1.60;;;1.00;;
59530;SDS011;45349;48.692;8.186;2023-07-29T09:10:41;2.03;;;1.00;;
59530;SDS011;45349;48.692;8.186;2023-07-29T09:13:07;4.43;;;1.13;;
59530;SDS011;45349;48.692;8.186;2023-07-29T09:15:35;1.40;;;0.80;;
59530;SDS011;45349;48.692;8.186;2023-07-29T09:18:08;1.20;;;1.00;;
59530;SDS011;45349;48.692;8.186;2023-07-29T09:20:35;3.50;;;1.10;;
59530;SDS011;45349;48.692;8.186;2023-07-29T09:23:06;2.57;;;1.07;;
59530;SDS011;45349;48.692;8.186;2023-07-29T09:25:33;3.13;;;1.30;;
59530;SDS011;45349;48.692;8.186;2023-07-29T09:28:00;4.87;;;1.60;;
59530;SDS011;45349;48.692;8.186;2023-07-29T09:30:28;12.40;;;1.50;;
59530;SDS011;45349;48.692;8.186;2023-07-29T09:32:55;6.17;;;0.80;;
59530;SDS011;45349;48.692;8.186;2023-07-29T09:35:22;2.97;;;0.73;;
59530;SDS011;45349;48.692;8.186;2023-07-29T09:37:50;0.60;;;0.50;;
59530;SDS011;45349;48.692;8.186;2023-07-29T09:40:18;1.33;;;0.50;;
59530;SDS011;45349;48.692;8.186;2023-07-29T09:42:48;2.77;;;0.70;;
59530;SDS011;45349;48.692;8.186;2023-07-29T09:45:19;1.80;;;0.60;;
59530;SDS011;45349;48.692;8.186;2023-07-29T09:47:47;3.57;;;0.50;;
59530;SDS011;45349;48.692;8.186;2023-07-29T09:50:14;3.20;;;0.70;;
59530;SDS011;45349;48.692;8.186;2023-07-29T09:52:41;1.60;;;0.53;;
59530;SDS011;45349;48.692;8.186;2023-07-29T09:55:11;0.60;;;0.57;;
59530;SDS011;45349;48.692;8.186;2023-07-29T09:57:40;2.83;;;0.50;;
59530;SDS011;45349;48.692;8.186;2023-07-29T10:00:07;1.90;;;0.70;;
59530;SDS011;45349;48.692;8.186;2023-07-29T10:02:37;2.80;;;0.60;;
59530;SDS011;45349;48.692;8.186;2023-07-29T10:05:05;0.60;;;0.50;;
59530;SDS011;45349;48.692;8.186;2023-07-29T10:07:33;3.50;;;0.60;;
59530;SDS011;45349;48.692;8.186;2023-07-29T10:10:01;1.93;;;0.70;;
59530;SDS011;45349;48.692;8.186;2023-07-29T10:12:30;1.50;;;0.60;;
59530;SDS011;45349;48.692;8.186;2023-07-29T10:15:00;1.50;;;0.80;;
59530;SDS011;45349;48.692;8.186;2023-07-29T10:17:29;2.47;;;0.80;;
59530;SDS011;45349;48.692;8.186;2023-07-29T10:19:56;1.30;;;1.10;;
59530;SDS011;45349;48.692;8.186;2023-07-29T10:22:24;1.93;;;1.20;;
59530;SDS011;45349;48.692;8.186;2023-07-29T10:24:54;1.00;;;0.87;;
59530;SDS011;45349;48.692;8.186;2023-07-29T10:27:22;1.93;;;1.00;;
59530;SDS011;45349;48.692;8.186;2023-07-29T10:29:53;3.93;;;1.30;;
59530;SDS011;45349;48.692;8.186;2023-07-29T10:32:23;6.27;;;1.30;;
59530;SDS011;45349;48.692;8.186;2023-07-29T10:34:53;1.37;;;1.10;;
59530;SDS011;45349;48.692;8.186;2023-07-29T10:37:20;3.63;;;1.27;;
59530;SDS011;45349;48.692;8.186;2023-07-29T10:39:54;1.00;;;0.90;;
59530;SDS011;45349;48.692;8.186;2023-07-29T10:42:21;1.23;;;0.90;;
59530;SDS011;45349;48.692;8.186;2023-07-29T10:44:53;1.10;;;0.87;;
59530;SDS011;45349;48.692;8.186;2023-07-29T10:47:21;0.93;;;0.83;;
59530;SDS011;45349;48.692;8.186;2023-07-29T10:49:55;1.33;;;0.80;;
59530;SDS011;45349;48.692;8.186;2023-07-29T10:52:29;1.00;;;0.80;;
59530;SDS011;45349;48.692;8.186;2023-07-29T10:54:57;2.53;;;0.90;;
59530;SDS011;45349;48.692;8.186;2023-07-29T10:57:34;3.47;;;1.00;;
59530;SDS011;45349;48.692;8.186;2023-07-29T11:00:02;1.43;;;0.80;;
59530;SDS011;45349;48.692;8.186;2023-07-29T11:02:30;1.37;;;0.90;;
59530;SDS011;45349;48.692;8.186;2023-07-29T11:05:04;1.20;;;0.87;;
59530;SDS011;45349;48.692;8.186;2023-07-29T11:07:31;1.40;;;0.70;;
59530;SDS011;45349;48.692;8.186;2023-07-29T11:10:10;1.27;;;0.80;;
59530;SDS011;45349;48.692;8.186;2023-07-29T11:12:42;2.37;;;0.80;;
59530;SDS011;45349;48.692;8.186;2023-07-29T11:17:59;1.57;;;0.97;;
59530;SDS011;45349;48.692;8.186;2023-07-29T11:20:29;1.03;;;0.87;;
59530;SDS011;45349;48.692;8.186;2023-07-29T11:22:56;3.10;;;1.00;;
59530;SDS011;45349;48.692;8.186;2023-07-29T11:25:26;1.30;;;0.90;;
59530;SDS011;45349;48.692;8.186;2023-07-29T11:27:54;2.77;;;1.10;;
59530;SDS011;45349;48.692;8.186;2023-07-29T11:30:22;8.03;;;1.10;;
59530;SDS011;45349;48.692;8.186;2023-07-29T11:32:51;3.03;;;0.90;;
59530;SDS011;45349;48.692;8.186;2023-07-29T11:35:19;1.53;;;1.20;;
59530;SDS011;45349;48.692;8.186;2023-07-29T11:37:48;1.53;;;0.90;;
59530;SDS011;45349;48.692;8.186;2023-07-29T11:40:15;1.57;;;1.00;;
59530;SDS011;45349;48.692;8.186;2023-07-29T11:42:43;4.27;;;1.43;;
59530;SDS011;45349;48.692;8.186;2023-07-29T11:45:11;1.73;;;1.00;;
59530;SDS011;45349;48.692;8.186;2023-07-29T11:47:38;2.97;;;1.20;;
59530;SDS011;45349;48.692;8.186;2023-07-29T11:50:06;1.20;;;0.90;;
59530;SDS011;45349;48.692;8.186;2023-07-29T11:52:34;1.70;;;1.00;;
59530;SDS011;45349;48.692;8.186;2023-07-29T11:55:04;2.40;;;1.20;;
59530;SDS011;45349;48.692;8.186;2023-07-29T11:57:31;1.70;;;1.10;;
59530;SDS011;45349;48.692;8.186;2023-07-29T12:00:01;1.67;;;1.03;;
59530;SDS011;45349;48.692;8.186;2023-07-29T12:02:34;1.20;;;0.90;;
59530;SDS011;45349;48.692;8.186;2023-07-29T12:05:02;1.40;;;1.20;;
59530;SDS011;45349;48.692;8.186;2023-07-29T12:07:30;1.50;;;1.23;;
59530;SDS011;45349;48.692;8.186;2023-07-29T12:09:58;1.40;;;1.20;;
59530;SDS011;45349;48.692;8.186;2023-07-29T12:12:26;1.67;;;1.47;;
59530;SDS011;45349;48.692;8.186;2023-07-29T12:14:54;1.90;;;1.13;;
59530;SDS011;45349;48.692;8.186;2023-07-29T12:17:20;1.57;;;1.10;;
59530;SDS011;45349;48.692;8.186;2023-07-29T12:19:54;1.73;;;1.23;;
59530;SDS011;45349;48.692;8.186;2023-07-29T12:22:21;3.13;;;1.20;;
59530;SDS011;45349;48.692;8.186;2023-07-29T12:24:53;1.90;;;1.50;;
59530;SDS011;45349;48.692;8.186;2023-07-29T12:27:21;4.77;;;1.37;;
59530;SDS011;45349;48.692;8.186;2023-07-29T12:29:54;1.43;;;1.10;;
59530;SDS011;45349;48.692;8.186;2023-07-29T12:32:24;2.70;;;1.27;;
59530;SDS011;45349;48.692;8.186;2023-07-29T12:34:54;1.30;;;1.20;;
59530;SDS011;45349;48.692;8.186;2023-07-29T12:37:30;1.97;;;1.43;;
59530;SDS011;45349;48.692;8.186;2023-07-29T12:39:58;1.70;;;1.30;;
59530;SDS011;45349;48.692;8.186;2023-07-29T12:42:25;3.63;;;1.20;;
59530;SDS011;45349;48.692;8.186;2023-07-29T12:44:54;3.70;;;1.43;;
59530;SDS011;45349;48.692;8.186;2023-07-29T12:47:21;2.30;;;1.40;;
59530;SDS011;45349;48.692;8.186;2023-07-29T12:50:12;1.60;;;1.40;;
59530;SDS011;45349;48.692;8.186;2023-07-29T12:52:38;1.67;;;1.20;;
59530;SDS011;45349;48.692;8.186;2023-07-29T12:55:05;3.13;;;1.20;;
59530;SDS011;45349;48.692;8.186;2023-07-29T12:57:33;1.43;;;1.30;;
59530;SDS011;45349;48.692;8.186;2023-07-29T13:00:03;1.50;;;1.30;;
59530;SDS011;45349;48.692;8.186;2023-07-29T13:02:31;2.13;;;1.30;;
59530;SDS011;45349;48.692;8.186;2023-07-29T13:04:57;4.00;;;1.60;;
59530;SDS011;45349;48.692;8.186;2023-07-29T13:07:24;3.50;;;1.50;;
59530;SDS011;45349;48.692;8.186;2023-07-29T13:09:53;2.70;;;1.40;;
59530;SDS011;45349;48.692;8.186;2023-07-29T13:12:20;2.83;;;1.60;;
59530;SDS011;45349;48.692;8.186;2023-07-29T13:15:13;2.40;;;1.50;;
59530;SDS011;45349;48.692;8.186;2023-07-29T13:17:39;1.93;;;1.30;;
59530;SDS011;45349;48.692;8.186;2023-07-29T13:20:07;7.07;;;1.80;;
59530;SDS011;45349;48.692;8.186;2023-07-29T13:22:34;1.80;;;1.30;;
59530;SDS011;45349;48.692;8.186;2023-07-29T13:25:01;3.07;;;1.57;;
59530;SDS011;45349;48.692;8.186;2023-07-29T13:27:27;2.10;;;1.63;;
59530;SDS011;45349;48.692;8.186;2023-07-29T13:29:54;3.20;;;1.40;;
59530;SDS011;45349;48.692;8.186;2023-07-29T13:32:22;3.80;;;1.70;;
59530;SDS011;45349;48.692;8.186;2023-07-29T13:34:53;2.80;;;1.40;;
59530;SDS011;45349;48.692;8.186;2023-07-29T13:37:20;3.70;;;1.60;;
59530;SDS011;45349;48.692;8.186;2023-07-29T13:39:50;1.77;;;1.53;;
59530;SDS011;45349;48.692;8.186;2023-07-29T13:42:17;3.13;;;1.60;;
59530;SDS011;45349;48.692;8.186;2023-07-29T13:44:43;2.23;;;1.77;;
59530;SDS011;45349;48.692;8.186;2023-07-29T13:47:10;2.27;;;1.60;;
59530;SDS011;45349;48.692;8.186;2023-07-29T13:49:38;2.63;;;1.60;;
59530;SDS011;45349;48.692;8.186;2023-07-29T13:52:04;3.03;;;1.70;;
59530;SDS011;45349;48.692;8.186;2023-07-29T13:54:31;2.73;;;1.90;;
59530;SDS011;45349;48.692;8.186;2023-07-29T13:56:58;3.47;;;1.63;;
59530;SDS011;45349;48.692;8.186;2023-07-29T13:59:24;2.27;;;1.67;;
59530;SDS011;45349;48.692;8.186;2023-07-29T14:01:51;1.67;;;1.53;;
59530;SDS011;45349;48.692;8.186;2023-07-29T14:04:18;1.80;;;1.37;;
59530;SDS011;45349;48.692;8.186;2023-07-29T14:06:45;1.90;;;1.57;;
59530;SDS011;45349;48.692;8.186;2023-07-29T14:09:12;2.60;;;1.60;;
59530;SDS011;45349;48.692;8.186;2023-07-29T14:11:39;2.30;;;1.50;;
59530;SDS011;45349;48.692;8.186;2023-07-29T14:14:05;2.10;;;1.60;;
59530;SDS011;45349;48.692;8.186;2023-07-29T14:16:32;4.57;;;1.70;;
59530;SDS011;45349;48.692;8.186;2023-07-29T14:18:59;3.67;;;1.40;;
59530;SDS011;45349;48.692;8.186;2023-07-29T14:21:25;4.87;;;1.50;;
59530;SDS011;45349;48.692;8.186;2023-07-29T14:23:53;3.33;;;1.67;;
59530;SDS011;45349;48.692;8.186;2023-07-29T14:26:20;2.30;;;1.50;;
59530;SDS011;45349;48.692;8.186;2023-07-29T14:28:47;2.50;;;1.57;;
59530;SDS011;45349;48.692;8.186;2023-07-29T14:31:15;2.90;;;1.50;;
59530;SDS011;45349;48.692;8.186;2023-07-29T14:33:42;1.77;;;1.47;;
59530;SDS011;45349;48.692;8.186;2023-07-29T14:36:08;5.23;;;1.63;;
59530;SDS011;45349;48.692;8.186;2023-07-29T14:38:35;1.70;;;1.60;;
59530;SDS011;45349;48.692;8.186;2023-07-29T14:41:03;1.73;;;1.40;;
59530;SDS011;45349;48.692;8.186;2023-07-29T14:43:30;2.37;;;1.50;;
59530;SDS011;45349;48.692;8.186;2023-07-29T14:45:57;2.97;;;1.60;;
59530;SDS011;45349;48.692;8.186;2023-07-29T14:48:23;3.10;;;1.77;;
59530;SDS011;45349;48.692;8.186;2023-07-29T14:50:50;3.07;;;1.67;;
59530;SDS011;45349;48.692;8.186;2023-07-29T14:53:16;3.30;;;1.77;;
59530;SDS011;45349;48.692;8.186;2023-07-29T14:55:43;5.00;;;1.53;;